TimeEST,TemperatureF,Dew PointF,Humidity,Sea Level PressureIn,VisibilityMPH,Wind Direction,Wind SpeedMPH,Gust SpeedMPH,PrecipitationIn,Events,Conditions,WindDirDegrees,DateUTC
12:54 AM,33.1,19.0,56,30.23,10.0,South,8.1,-,N/A,,Clear,180,2013-02-19 05:54:00
1:54 AM,34.0,26.1,73,30.20,10.0,South,8.1,-,N/A,,Clear,190,2013-02-19 06:54:00
2:54 AM,36.0,26.1,67,30.17,10.0,South,10.4,-,N/A,,Clear,190,2013-02-19 07:54:00
3:54 AM,36.0,26.1,67,30.15,10.0,SSW,9.2,-,N/A,,Clear,200,2013-02-19 08:54:00
4:54 AM,35.1,25.0,67,30.13,10.0,SSW,8.1,-,N/A,,Clear,200,2013-02-19 09:54:00
5:54 AM,35.1,26.1,70,30.11,10.0,South,8.1,-,N/A,,Clear,190,2013-02-19 10:54:00
6:54 AM,37.0,26.1,65,30.10,10.0,South,10.4,-,N/A,,Clear,190,2013-02-19 11:54:00
7:54 AM,37.9,27.0,65,30.10,10.0,SSW,11.5,-,N/A,,Clear,200,2013-02-19 12:54:00
8:54 AM,42.1,28.0,58,30.06,10.0,SSW,12.7,21.9,N/A,,Clear,200,2013-02-19 13:54:00
9:54 AM,45.0,34.0,65,30.05,10.0,South,15.0,21.9,N/A,,Clear,190,2013-02-19 14:54:00
10:54 AM,48.0,35.1,61,30.02,10.0,South,16.1,-,N/A,,Clear,190,2013-02-19 15:54:00
11:54 AM,48.0,36.0,63,29.99,10.0,South,13.8,-,N/A,,Overcast,190,2013-02-19 16:54:00
12:54 PM,45.0,39.0,80,29.95,7.0,SSE,9.2,-,0.02,Rain,Rain,160,2013-02-19 17:54:00
1:54 PM,45.0,41.0,86,29.89,10.0,South,10.4,-,0.05,Rain,Light Rain,180,2013-02-19 18:54:00
2:54 PM,46.0,42.1,86,29.84,10.0,South,9.2,-,0.01,,Overcast,190,2013-02-19 19:54:00
3:54 PM,46.0,42.1,86,29.80,9.0,South,11.5,-,0.03,Rain,Light Rain,180,2013-02-19 20:54:00
4:54 PM,46.0,43.0,89,29.76,7.0,SSW,11.5,-,0.04,Rain,Light Rain,200,2013-02-19 21:54:00
5:54 PM,46.0,43.0,89,29.74,10.0,SSW,11.5,-,0.03,Rain,Light Rain,200,2013-02-19 22:54:00
6:17 PM,46.0,44.1,93,29.73,10.0,SSW,9.2,-,0.01,,Overcast,200,2013-02-19 23:17:00
6:32 PM,46.0,44.1,93,29.73,9.0,SSW,8.1,-,0.01,Rain,Light Rain,200,2013-02-19 23:32:00
7:54 PM,48.0,44.1,86,29.73,10.0,West,18.4,27.6,0.01,,Overcast,260,2013-02-20 00:54:00
8:22 PM,46.9,41.0,80,29.73,10.0,West,11.5,32.2,0.00,,Overcast,270,2013-02-20 01:22:00
8:37 PM,46.0,41.0,83,29.73,10.0,West,12.7,-,0.00,,Overcast,270,2013-02-20 01:37:00
8:54 PM,46.0,39.9,79,29.75,10.0,West,11.5,-,0.00,,Overcast,270,2013-02-20 01:54:00
9:54 PM,43.0,37.9,82,29.78,10.0,West,12.7,-,N/A,,Mostly Cloudy,280,2013-02-20 02:54:00
10:54 PM,42.1,32.0,67,29.79,10.0,WNW,13.8,25.3,N/A,,Mostly Cloudy,290,2013-02-20 03:54:00
11:54 PM,37.0,28.0,70,29.80,10.0,West,8.1,-,N/A,,Clear,280,2013-02-20 04:54:00